createdAt,value
2023-03-29T00:00:14.600Z,101183.25
2023-03-29T00:03:17.015Z,101178.56
2023-03-29T00:06:22.448Z,101187.62
2023-03-29T00:09:26.781Z,101188.91
2023-03-29T00:12:28.960Z,101190.28
2023-03-29T00:15:30.664Z,101191.38
2023-03-29T00:18:32.313Z,101198.28
2023-03-29T00:21:33.952Z,101187.91
2023-03-29T00:24:36.206Z,101185.22
2023-03-29T00:27:38.467Z,101184.19
2023-03-29T00:30:40.228Z,101184.66
2023-03-29T00:33:42.343Z,101177.13
2023-03-29T00:36:44.109Z,101180.16
2023-03-29T00:39:46.856Z,101179.03
2023-03-29T00:42:48.719Z,101188.44
2023-03-29T00:45:50.713Z,101188.34
2023-03-29T00:48:55.019Z,101197.75
2023-03-29T00:51:57.278Z,101192.06
2023-03-29T00:55:06.336Z,101194.94
2023-03-29T00:58:13.040Z,101204.88
2023-03-29T01:01:19.627Z,101208.81
2023-03-29T01:04:29.428Z,101200.09
2023-03-29T01:07:35.241Z,101206.41
2023-03-29T01:10:47.724Z,101201.00
2023-03-29T01:13:52.028Z,101209.59
2023-03-29T01:16:54.681Z,101200.47
2023-03-29T01:20:07.945Z,101204.50
2023-03-29T01:23:31.469Z,101199.87
2023-03-29T01:26:55.231Z,101194.94
2023-03-29T01:30:05.606Z,101201.25
2023-03-29T01:33:15.326Z,101194.22
2023-03-29T01:36:27.143Z,101189.59
2023-03-29T01:39:28.863Z,101190.38
2023-03-29T01:42:46.704Z,101189.78
2023-03-29T01:46:00.495Z,101189.50
2023-03-29T01:49:14.669Z,101186.03
2023-03-29T01:52:32.245Z,101195.06
2023-03-29T01:55:38.422Z,101207.25
2023-03-29T01:58:45.185Z,101201.22
2023-03-29T02:01:51.772Z,101211.56
2023-03-29T02:04:56.172Z,101212.03
2023-03-29T02:08:03.777Z,101208.16
2023-03-29T02:11:05.548Z,101209.16
2023-03-29T02:14:07.550Z,101208.59
2023-03-29T02:17:20.128Z,101208.00
2023-03-29T02:20:39.002Z,101206.03
2023-03-29T02:23:45.525Z,101205.75
2023-03-29T02:26:48.506Z,101207.09
2023-03-29T02:29:50.621Z,101205.88
2023-03-29T02:33:02.248Z,101205.59
2023-03-29T02:36:27.491Z,101202.09
2023-03-29T02:39:32.261Z,101210.66
2023-03-29T02:42:35.352Z,101208.72
2023-03-29T02:45:39.029Z,101218.94
2023-03-29T02:48:41.222Z,101214.25
2023-03-29T02:51:44.209Z,101223.87
2023-03-29T02:54:48.985Z,101226.69
2023-03-29T02:57:50.727Z,101214.25
2023-03-29T03:00:52.626Z,101214.41
2023-03-29T03:03:54.370Z,101216.94
2023-03-29T03:06:56.147Z,101228.81
2023-03-29T03:09:57.828Z,101228.78
2023-03-29T03:12:59.479Z,101227.31
2023-03-29T03:16:01.327Z,101224.16
2023-03-29T03:19:03.910Z,101221.91
2023-03-29T03:22:06.158Z,101232.88
2023-03-29T03:25:10.390Z,101239.44
2023-03-29T03:28:12.531Z,101235.97
2023-03-29T03:31:14.698Z,101238.69
2023-03-29T03:34:16.397Z,101242.41
2023-03-29T03:37:18.212Z,101232.22
2023-03-29T03:40:20.886Z,101237.63
2023-03-29T03:43:22.845Z,101236.41
2023-03-29T03:46:24.901Z,101238.34
2023-03-29T03:49:26.949Z,101243.16
2023-03-29T03:52:28.581Z,101247.50
2023-03-29T03:55:32.445Z,101258.03
2023-03-29T03:58:37.332Z,101257.91
2023-03-29T04:01:43.487Z,101260.87
2023-03-29T04:04:45.182Z,101260.44
2023-03-29T04:07:47.046Z,101262.16
2023-03-29T04:11:13.819Z,101257.94
2023-03-29T04:14:15.466Z,101259.00
2023-03-29T04:17:17.234Z,101259.56
2023-03-29T04:20:18.895Z,101256.25
2023-03-29T04:23:20.546Z,101255.34
2023-03-29T04:26:22.993Z,101254.91
2023-03-29T04:29:24.741Z,101256.38
2023-03-29T04:32:26.700Z,101261.19
2023-03-29T04:35:28.403Z,101269.88
2023-03-29T04:38:30.193Z,101269.88
2023-03-29T04:41:32.693Z,101272.72
2023-03-29T04:44:35.099Z,101281.47
2023-03-29T04:47:39.687Z,101277.59
2023-03-29T04:50:41.581Z,101271.47
2023-03-29T04:53:43.225Z,101271.47
2023-03-29T04:56:44.854Z,101263.56
2023-03-29T04:59:46.499Z,101268.81
2023-03-29T05:02:48.268Z,101262.97
2023-03-29T05:05:50.653Z,101263.13
2023-03-29T05:08:52.385Z,101271.37
2023-03-29T05:11:54.111Z,101275.41
2023-03-29T05:14:55.746Z,101266.81
2023-03-29T05:17:58.983Z,101263.63
2023-03-29T05:21:01.067Z,101268.69
2023-03-29T05:24:03.051Z,101276.78
2023-03-29T05:27:05.080Z,101273.22
2023-03-29T05:30:07.385Z,101273.06
2023-03-29T05:33:09.199Z,101280.03
2023-03-29T05:36:16.166Z,101282.03
2023-03-29T05:39:17.990Z,101279.50
2023-03-29T05:42:22.468Z,101286.50
2023-03-29T05:45:24.765Z,101287.69
2023-03-29T05:48:27.316Z,101283.91
2023-03-29T05:51:29.002Z,101289.69
2023-03-29T05:54:30.737Z,101292.13
2023-03-29T05:57:32.562Z,101294.75
2023-03-29T06:00:36.994Z,101292.09
2023-03-29T06:03:38.865Z,101303.50
2023-03-29T06:06:41.807Z,101304.09
2023-03-29T06:09:44.747Z,101307.44
2023-03-29T06:12:49.586Z,101322.03
2023-03-29T06:15:51.218Z,101321.53
2023-03-29T06:18:53.322Z,101322.97
2023-03-29T06:21:55.075Z,101326.19
2023-03-29T06:24:56.717Z,101328.50
2023-03-29T06:27:58.346Z,101330.53
2023-03-29T06:31:03.095Z,101338.37
2023-03-29T06:34:06.017Z,101335.56
2023-03-29T06:37:08.565Z,101333.53
2023-03-29T06:40:10.678Z,101338.03
2023-03-29T06:43:12.981Z,101339.94
2023-03-29T06:46:15.093Z,101342.00
2023-03-29T06:49:16.851Z,101346.19
2023-03-29T06:52:18.465Z,101355.72
2023-03-29T06:55:21.798Z,101354.97
2023-03-29T06:58:23.421Z,101352.53
2023-03-29T07:01:25.170Z,101353.34
2023-03-29T07:04:26.955Z,101347.22
2023-03-29T07:07:37.519Z,101360.72
2023-03-29T07:10:42.016Z,101354.25
2023-03-29T07:13:43.974Z,101348.94
2023-03-29T07:16:47.262Z,101354.47
2023-03-29T07:19:49.361Z,101355.63
2023-03-29T07:22:51.564Z,101359.31
2023-03-29T07:25:54.168Z,101356.69
2023-03-29T07:28:56.298Z,101358.87
2023-03-29T07:31:58.018Z,101366.69
2023-03-29T07:34:59.677Z,101364.81
2023-03-29T07:38:01.323Z,101367.00
2023-03-29T07:41:05.141Z,101359.75
2023-03-29T07:44:09.446Z,101360.53
2023-03-29T07:47:11.129Z,101362.78
2023-03-29T07:50:13.636Z,101368.94
2023-03-29T07:53:15.961Z,101355.91
2023-03-29T07:56:17.764Z,101368.63
2023-03-29T07:59:19.508Z,101362.28
2023-03-29T08:02:21.492Z,101369.00
2023-03-29T08:05:37.731Z,101371.63
2023-03-29T08:08:42.259Z,101367.41
2023-03-29T08:11:43.914Z,101366.56
2023-03-29T08:14:46.285Z,101370.62
2023-03-29T08:17:47.997Z,101364.53
2023-03-29T08:20:51.082Z,101363.16
2023-03-29T08:23:52.744Z,101374.72
2023-03-29T08:26:54.461Z,101366.25
2023-03-29T08:29:56.460Z,101355.47
2023-03-29T08:32:58.214Z,101358.75
2023-03-29T08:35:59.988Z,101347.34
2023-03-29T08:39:03.164Z,101339.00
2023-03-29T08:42:17.161Z,101342.88
2023-03-29T08:45:37.156Z,101336.75
2023-03-29T08:48:42.522Z,101333.53
2023-03-29T08:51:52.930Z,101335.69
2023-03-29T08:54:56.958Z,101335.50
2023-03-29T08:58:00.137Z,101328.78
2023-03-29T09:01:06.123Z,101331.78
2023-03-29T09:04:17.399Z,101333.16
2023-03-29T09:07:19.151Z,101329.50
2023-03-29T09:10:28.047Z,101330.81
2023-03-29T09:13:58.845Z,101334.09
2023-03-29T09:17:19.485Z,101331.53
2023-03-29T09:20:42.330Z,101327.88
2023-03-29T09:24:13.674Z,101324.00
2023-03-29T09:27:27.364Z,101315.09
2023-03-29T09:30:31.960Z,101316.69
2023-03-29T09:33:50.488Z,101310.97
2023-03-29T09:37:03.282Z,101306.78
2023-03-29T09:40:12.553Z,101298.97
2023-03-29T09:43:18.478Z,101292.88
2023-03-29T09:46:29.131Z,101295.28
2023-03-29T09:49:36.196Z,101294.50
2023-03-29T09:52:38.033Z,101293.91
2023-03-29T09:55:40.895Z,101298.31
2023-03-29T09:58:44.275Z,101294.78
2023-03-29T10:01:46.168Z,101286.97
2023-03-29T10:04:55.515Z,101289.00
2023-03-29T10:08:01.177Z,101292.91
2023-03-29T10:11:20.234Z,101286.78
2023-03-29T10:14:37.164Z,101273.59
2023-03-29T10:17:41.084Z,101269.25
2023-03-29T10:20:42.733Z,101260.78
2023-03-29T10:23:44.602Z,101254.41
2023-03-29T10:26:47.178Z,101251.25
2023-03-29T10:29:49.777Z,101244.75
2023-03-29T10:32:58.106Z,101241.31
2023-03-29T10:36:02.956Z,101250.00
2023-03-29T10:39:06.338Z,101231.28
2023-03-29T10:42:14.829Z,101224.00
2023-03-29T10:45:29.051Z,101215.72
2023-03-29T10:48:31.844Z,101221.91
2023-03-29T10:51:34.572Z,101217.69
2023-03-29T10:54:36.804Z,101211.75
2023-03-29T10:57:54.126Z,101219.28
2023-03-29T11:00:57.114Z,101215.91
2023-03-29T11:04:13.114Z,101214.66
2023-03-29T11:07:17.790Z,101219.47
2023-03-29T11:10:42.462Z,101216.59
2023-03-29T11:13:49.841Z,101221.66
2023-03-29T11:16:57.539Z,101196.94
2023-03-29T11:20:17.617Z,101201.75
2023-03-29T11:23:31.124Z,101201.84
2023-03-29T11:26:38.956Z,101195.06
2023-03-29T11:29:53.454Z,101193.09
2023-03-29T11:33:16.496Z,101194.50
2023-03-29T11:36:42.859Z,101195.75
2023-03-29T11:40:10.981Z,101181.94
2023-03-29T11:43:42.845Z,101186.44
2023-03-29T11:47:07.287Z,101175.63
2023-03-29T11:50:18.555Z,101170.62
2023-03-29T11:53:31.196Z,101163.50
2023-03-29T11:56:49.404Z,101179.00
2023-03-29T12:00:01.991Z,101176.56
2023-03-29T12:03:10.889Z,101173.69
2023-03-29T12:06:27.490Z,101164.81
2023-03-29T12:09:39.735Z,101165.63
2023-03-29T12:13:03.434Z,101159.59
2023-03-29T12:16:46.064Z,101155.47
2023-03-29T12:20:00.792Z,101156.41
2023-03-29T12:23:02.840Z,101161.91
2023-03-29T12:26:08.586Z,101156.94
2023-03-29T12:29:31.295Z,101148.34
2023-03-29T12:33:09.012Z,101142.47
2023-03-29T12:36:19.114Z,101146.81
2023-03-29T12:39:21.163Z,101139.34
2023-03-29T12:42:24.234Z,101134.28
2023-03-29T12:45:33.288Z,101128.69
2023-03-29T12:48:38.971Z,101128.03
2023-03-29T12:51:42.807Z,101129.31
2023-03-29T12:54:57.369Z,101124.03
2023-03-29T12:58:06.136Z,101122.09
2023-03-29T13:01:23.400Z,101117.53
2023-03-29T13:04:37.579Z,101119.84
2023-03-29T13:07:49.772Z,101111.06
2023-03-29T13:10:56.154Z,101115.25
2023-03-29T13:14:01.645Z,101109.62
2023-03-29T13:17:17.712Z,101100.84
2023-03-29T13:20:32.325Z,101092.78
2023-03-29T13:23:55.175Z,101093.88
2023-03-29T13:27:43.206Z,101097.97
2023-03-29T13:31:05.285Z,101091.16
2023-03-29T13:34:21.153Z,101093.94
2023-03-29T13:37:44.499Z,101086.38
2023-03-29T13:41:11.864Z,101099.72
2023-03-29T13:44:22.304Z,101096.47
2023-03-29T13:47:33.152Z,101090.84
2023-03-29T13:50:40.603Z,101088.03
2023-03-29T13:53:51.793Z,101089.09
2023-03-29T13:57:01.494Z,101078.88
2023-03-29T14:00:22.231Z,101079.16
2023-03-29T14:03:29.798Z,101071.37
2023-03-29T14:06:35.017Z,101062.25
2023-03-29T14:09:42.579Z,101070.75
2023-03-29T14:12:45.663Z,101060.72
2023-03-29T14:15:57.303Z,101052.84
2023-03-29T14:19:02.306Z,101055.72
2023-03-29T14:22:10.853Z,101054.72
2023-03-29T14:25:17.198Z,101062.28
2023-03-29T14:28:27.137Z,101059.97
2023-03-29T14:31:34.393Z,101061.16
2023-03-29T14:34:36.248Z,101059.34
2023-03-29T14:37:38.718Z,101067.84
2023-03-29T14:40:40.689Z,101057.97
2023-03-29T14:43:42.609Z,101057.19
2023-03-29T14:46:46.839Z,101054.94
2023-03-29T14:49:49.088Z,101052.12
2023-03-29T14:52:52.410Z,101043.56
2023-03-29T14:55:56.113Z,101048.06
2023-03-29T14:58:57.763Z,101050.19
2023-03-29T15:01:59.456Z,101048.00
2023-03-29T15:05:25.611Z,101040.72
2023-03-29T15:08:38.600Z,101041.03
2023-03-29T15:11:40.813Z,101039.06
2023-03-29T15:14:42.621Z,101039.94
2023-03-29T15:17:52.146Z,101038.28
2023-03-29T15:20:54.634Z,101038.31
2023-03-29T15:23:58.516Z,101042.47
2023-03-29T15:27:11.247Z,101040.25
2023-03-29T15:30:15.524Z,101033.91
2023-03-29T15:33:23.166Z,101034.59
2023-03-29T15:36:25.010Z,101034.16
2023-03-29T15:39:28.037Z,101035.56
2023-03-29T15:42:29.782Z,101033.78
2023-03-29T15:45:31.422Z,101031.47
2023-03-29T15:48:33.895Z,101029.38
2023-03-29T15:51:35.656Z,101029.06
2023-03-29T15:54:37.378Z,101028.62
2023-03-29T15:57:39.213Z,101025.91
2023-03-29T16:00:44.708Z,101039.88
2023-03-29T16:03:48.091Z,101038.03
2023-03-29T16:06:55.341Z,101039.78
2023-03-29T16:09:57.813Z,101031.44
2023-03-29T16:12:59.540Z,101035.12
2023-03-29T16:16:01.966Z,101034.72
2023-03-29T16:19:03.818Z,101027.97
2023-03-29T16:22:07.390Z,101021.62
2023-03-29T16:25:15.974Z,101021.28
2023-03-29T16:28:17.626Z,101024.44
2023-03-29T16:31:19.349Z,101016.69
2023-03-29T16:34:22.782Z,101022.44
2023-03-29T16:37:24.500Z,101011.66
2023-03-29T16:40:26.704Z,101013.34
2023-03-29T16:43:28.842Z,101012.22
2023-03-29T16:46:30.872Z,101014.81
2023-03-29T16:49:32.640Z,101009.34
2023-03-29T16:52:34.416Z,101014.53
2023-03-29T16:55:38.037Z,101013.34
2023-03-29T16:58:39.963Z,101008.31
2023-03-29T17:01:42.031Z,101010.78
2023-03-29T17:04:43.985Z,101002.28
2023-03-29T17:07:46.182Z,100995.31
2023-03-29T17:10:55.696Z,100999.84
2023-03-29T17:13:57.428Z,101005.97
2023-03-29T17:16:59.098Z,101003.09
2023-03-29T17:20:01.346Z,101006.09
2023-03-29T17:23:03.277Z,101004.41
2023-03-29T17:26:07.033Z,101001.41
2023-03-29T17:29:08.765Z,101008.84
2023-03-29T17:32:10.640Z,101016.50
2023-03-29T17:35:13.422Z,101009.34
2023-03-29T17:38:15.142Z,101019.63
2023-03-29T17:41:19.181Z,101025.16
2023-03-29T17:44:21.126Z,101028.22
2023-03-29T17:47:22.760Z,101021.16
2023-03-29T17:50:24.776Z,101028.12
2023-03-29T17:53:27.314Z,101031.41
2023-03-29T17:56:29.162Z,101034.19
2023-03-29T17:59:31.654Z,101037.84
2023-03-29T18:02:35.374Z,101035.94
2023-03-29T18:05:37.797Z,101040.16
2023-03-29T18:08:40.718Z,101043.72
2023-03-29T18:11:42.772Z,101044.72
2023-03-29T18:14:44.844Z,101044.78
2023-03-29T18:17:47.657Z,101052.31
2023-03-29T18:20:49.949Z,101054.03
2023-03-29T18:23:54.340Z,101054.88
2023-03-29T18:26:58.654Z,101051.81
2023-03-29T18:30:01.949Z,101050.53
2023-03-29T18:33:04.128Z,101056.84
2023-03-29T18:36:10.812Z,101051.72
2023-03-29T18:39:15.256Z,101055.56
2023-03-29T18:42:19.008Z,101054.13
2023-03-29T18:45:22.721Z,101047.88
2023-03-29T18:48:25.118Z,101056.38
2023-03-29T18:51:28.727Z,101053.63
2023-03-29T18:54:31.556Z,101043.09
2023-03-29T18:57:34.254Z,101054.25
2023-03-29T19:00:38.128Z,101047.84
2023-03-29T19:03:43.161Z,101049.31
2023-03-29T19:06:46.572Z,101052.41
2023-03-29T19:09:51.700Z,101049.31
2023-03-29T19:12:54.294Z,101049.38
2023-03-29T19:15:56.954Z,101044.25
2023-03-29T19:19:00.380Z,101053.03
2023-03-29T19:22:03.374Z,101044.91
2023-03-29T19:25:09.118Z,101050.47
2023-03-29T19:28:12.121Z,101048.53
2023-03-29T19:31:14.719Z,101049.72
2023-03-29T19:34:20.167Z,101051.72
2023-03-29T19:37:23.047Z,101047.63
2023-03-29T19:40:25.717Z,101045.88
2023-03-29T19:43:27.721Z,101046.97
2023-03-29T19:46:29.715Z,101050.94
2023-03-29T19:49:34.012Z,101057.31
2023-03-29T19:52:36.113Z,101049.81
2023-03-29T19:55:39.707Z,101054.37
2023-03-29T19:58:42.064Z,101058.16
2023-03-29T20:01:50.985Z,101062.88
2023-03-29T20:04:53.581Z,101056.94
2023-03-29T20:07:55.627Z,101058.62
2023-03-29T20:11:10.457Z,101066.56
2023-03-29T20:14:12.974Z,101055.09
2023-03-29T20:17:16.612Z,101059.38
2023-03-29T20:20:18.761Z,101056.22
2023-03-29T20:23:20.660Z,101062.38
2023-03-29T20:26:24.296Z,101056.63
2023-03-29T20:29:26.074Z,101056.34
2023-03-29T20:32:30.203Z,101052.84
2023-03-29T20:35:31.942Z,101057.72
2023-03-29T20:38:33.678Z,101058.31
2023-03-29T20:41:38.421Z,101050.47
2023-03-29T20:44:40.233Z,101057.63
2023-03-29T20:47:42.582Z,101042.91
2023-03-29T20:50:48.388Z,101045.78
2023-03-29T20:53:50.732Z,101045.16
2023-03-29T20:56:54.745Z,101043.03
2023-03-29T20:59:56.528Z,101042.16
2023-03-29T21:03:01.322Z,101037.00
2023-03-29T21:06:03.632Z,101033.53
2023-03-29T21:09:06.108Z,101037.44
2023-03-29T21:12:07.966Z,101037.94
2023-03-29T21:15:10.626Z,101035.09
2023-03-29T21:18:12.322Z,101031.78
2023-03-29T21:21:14.100Z,101025.22
2023-03-29T21:24:15.815Z,101023.44
2023-03-29T21:27:18.441Z,101022.94
2023-03-29T21:30:20.124Z,101025.31
2023-03-29T21:33:21.824Z,101031.78
2023-03-29T21:36:24.129Z,101028.91
2023-03-29T21:39:26.874Z,101022.34
2023-03-29T21:42:28.510Z,101022.53
2023-03-29T21:45:30.626Z,101026.41
2023-03-29T21:48:32.392Z,101022.34
2023-03-29T21:51:34.051Z,101028.50
2023-03-29T21:54:36.132Z,101016.78
2023-03-29T21:57:37.968Z,101017.25
2023-03-29T22:00:39.636Z,101019.38
2023-03-29T22:03:41.341Z,101012.81
2023-03-29T22:06:43.046Z,101016.16
2023-03-29T22:09:46.549Z,101019.97
2023-03-29T22:12:49.088Z,101009.25
2023-03-29T22:16:03.756Z,101011.00
2023-03-29T22:19:06.344Z,101005.63
2023-03-29T22:22:13.728Z,101002.06
2023-03-29T22:25:19.458Z,101001.88
2023-03-29T22:28:21.146Z,100995.78
2023-03-29T22:31:24.331Z,101007.53
2023-03-29T22:34:26.589Z,101000.56
2023-03-29T22:37:28.671Z,101003.25
2023-03-29T22:40:33.238Z,101001.66
2023-03-29T22:43:36.514Z,101003.25
2023-03-29T22:46:38.407Z,101008.81
2023-03-29T22:49:40.209Z,100998.38
2023-03-29T22:52:41.863Z,101003.56
2023-03-29T22:55:44.246Z,101009.22
2023-03-29T22:58:46.277Z,101004.38
2023-03-29T23:01:48.484Z,101015.47
2023-03-29T23:04:50.217Z,101015.63
2023-03-29T23:07:51.997Z,101017.25
2023-03-29T23:10:53.597Z,101013.75
2023-03-29T23:13:55.291Z,101015.91
2023-03-29T23:16:56.963Z,101013.78
2023-03-29T23:19:59.315Z,101026.31
2023-03-29T23:23:01.423Z,101019.16
2023-03-29T23:26:03.998Z,101021.34
2023-03-29T23:29:05.712Z,101012.63
2023-03-29T23:32:07.439Z,101009.34
2023-03-29T23:35:09.321Z,101016.59
2023-03-29T23:38:10.926Z,101009.91
2023-03-29T23:41:13.390Z,101013.41
2023-03-29T23:44:15.227Z,101005.19
2023-03-29T23:47:16.859Z,100999.41
2023-03-29T23:50:18.705Z,100999.37
2023-03-29T23:53:21.047Z,101000.38
2023-03-29T23:56:23.061Z,100997.31
2023-03-29T23:59:29.876Z,101001.38
